Time;durP1;ratioP1;P1;durP2;ratioP2;P2;SDS_P1;SDS_P2;PMS_P1;PMS_P2;Temp;Humidity;BMP_temperature;BMP_pressure;BME280_temperature;BME280_humidity;BME280_pressure;Samples;Min_cycle;Max_cycle;Signal;HPM_P1;HPM_P2
2021/07/17 00:01:36;;;;;;;8.60;5.13;;;;;;;;;;5051728;28;20068;-76
2021/07/17 00:04:02;;;;;;;14.20;4.68;;;;;;;;;;5053504;28;20053;-76
2021/07/17 00:06:28;;;;;;;10.23;4.78;;;;;;;;;;5052770;28;20566;-76
2021/07/17 00:08:54;;;;;;;12.80;5.40;;;;;;;;;;5051020;28;20037;-76
2021/07/17 00:11:20;;;;;;;10.88;5.35;;;;;;;;;;5052876;28;20032;-77
2021/07/17 00:13:47;;;;;;;8.93;4.65;;;;;;;;;;5052829;28;20029;-77
2021/07/17 00:16:13;;;;;;;9.45;4.78;;;;;;;;;;5051230;28;20083;-77
2021/07/17 00:18:39;;;;;;;12.55;5.00;;;;;;;;;;5052720;28;20036;-75
2021/07/17 00:21:05;;;;;;;10.77;5.07;;;;;;;;;;5052709;28;20027;-75
2021/07/17 00:23:31;;;;;;;10.18;4.57;;;;;;;;;;5050688;28;20116;-77
2021/07/17 00:25:58;;;;;;;16.17;5.03;;;;;;;;;;5052478;28;20045;-77
2021/07/17 00:28:25;;;;;;;6.85;4.97;;;;;;;;;;5052577;28;20472;-77
2021/07/17 00:30:51;;;;;;;7.32;4.38;;;;;;;;;;5052499;28;20036;-76
2021/07/17 00:33:17;;;;;;;11.00;5.05;;;;;;;;;;5052028;28;20029;-76
2021/07/17 00:35:43;;;;;;;12.07;5.00;;;;;;;;;;5050766;28;20091;-76
2021/07/17 00:38:09;;;;;;;9.20;4.80;;;;;;;;;;5050562;28;20098;-76
2021/07/17 00:40:36;;;;;;;8.63;4.97;;;;;;;;;;5052492;28;20448;-76
2021/07/17 00:43:02;;;;;;;7.20;4.80;;;;;;;;;;5050941;28;20471;-77
2021/07/17 00:45:28;;;;;;;9.00;5.00;;;;;;;;;;5052069;28;20148;-76
2021/07/17 00:47:54;;;;;;;12.98;5.40;;;;;;;;;;5051454;28;20072;-77
2021/07/17 00:50:20;;;;;;;11.95;5.25;;;;;;;;;;5052096;28;20025;-77
2021/07/17 00:52:47;;;;;;;11.07;5.50;;;;;;;;;;5051951;28;20456;-77
2021/07/17 00:55:13;;;;;;;6.93;4.88;;;;;;;;;;5051686;28;20025;-77
2021/07/17 00:57:41;;;;;;;7.10;4.70;;;;;;;;;;5051774;28;20041;-76
2021/07/17 01:00:07;;;;;;;;;;;;;;;;;;5052471;28;20087;-77
2021/07/17 01:02:35;;;;;;;9.48;4.85;;;;;;;;;;5051528;28;19959;-77
2021/07/17 01:05:01;;;;;;;11.55;4.28;;;;;;;;;;5051870;28;20086;-75
2021/07/17 01:07:27;;;;;;;5.93;4.30;;;;;;;;;;5051358;28;20040;-77
2021/07/17 01:09:53;;;;;;;7.35;4.38;;;;;;;;;;5049979;28;20044;-76
2021/07/17 01:12:20;;;;;;;7.32;3.80;;;;;;;;;;5051780;28;20028;-76
2021/07/17 01:14:46;;;;;;;10.40;5.13;;;;;;;;;;5051665;28;20029;-78
2021/07/17 01:17:13;;;;;;;4.00;3.40;;;;;;;;;;5051176;28;20468;-78
2021/07/17 01:19:39;;;;;;;8.30;3.67;;;;;;;;;;5051302;28;20025;-77
2021/07/17 01:22:05;;;;;;;6.68;3.78;;;;;;;;;;5050551;28;20379;-77
2021/07/17 01:24:32;;;;;;;5.57;3.70;;;;;;;;;;5051473;28;20047;-77
2021/07/17 01:26:58;;;;;;;5.60;4.00;;;;;;;;;;5049850;28;20055;-78
2021/07/17 01:29:24;;;;;;;6.88;3.42;;;;;;;;;;5051500;28;20040;-78
2021/07/17 01:31:50;;;;;;;7.15;4.15;;;;;;;;;;5050782;28;20025;-76
2021/07/17 01:34:16;;;;;;;4.40;3.92;;;;;;;;;;5050102;28;20029;-77
2021/07/17 01:36:42;;;;;;;6.43;3.38;;;;;;;;;;5049699;28;20032;-77
2021/07/17 01:39:09;;;;;;;8.57;3.78;;;;;;;;;;5051278;28;20295;-76
2021/07/17 01:41:35;;;;;;;5.53;3.90;;;;;;;;;;5049446;28;20017;-77
2021/07/17 01:44:01;;;;;;;6.40;4.00;;;;;;;;;;5051158;28;20279;-77
2021/07/17 01:46:27;;;;;;;6.68;4.25;;;;;;;;;;5050942;28;20429;-77
2021/07/17 01:48:54;;;;;;;8.50;5.03;;;;;;;;;;5049816;28;20052;-76
2021/07/17 01:51:20;;;;;;;7.50;5.00;;;;;;;;;;5050717;28;20111;-77
2021/07/17 01:53:47;;;;;;;9.20;5.05;;;;;;;;;;5049441;28;20358;-77
2021/07/17 01:56:13;;;;;;;8.73;4.80;;;;;;;;;;5051070;28;20541;-75
2021/07/17 01:58:39;;;;;;;6.40;4.43;;;;;;;;;;5050505;28;20033;-77
2021/07/17 02:01:05;;;;;;;6.32;4.47;;;;;;;;;;5050696;28;20093;-77
2021/07/17 02:03:31;;;;;;;9.80;4.43;;;;;;;;;;5049953;28;20425;-76
2021/07/17 02:05:59;;;;;;;6.60;4.35;;;;;;;;;;5050764;28;20142;-77
2021/07/17 02:08:25;;;;;;;;;;;;;;;;;;5050846;28;20045;-77
2021/07/17 02:10:51;;;;;;;5.35;4.35;;;;;;;;;;5050432;28;20326;-76
2021/07/17 02:13:17;;;;;;;6.55;4.88;;;;;;;;;;5049386;28;20044;-77
2021/07/17 02:15:47;;;;;;;9.38;4.63;;;;;;;;;;5050569;28;20065;-77
2021/07/17 02:18:14;;;;;;;6.53;4.40;;;;;;;;;;5048587;28;20098;-75
2021/07/17 02:20:40;;;;;;;5.70;4.00;;;;;;;;;;5050525;28;20059;-77
2021/07/17 02:23:06;;;;;;;6.65;4.55;;;;;;;;;;5050452;28;20033;-77
2021/07/17 02:25:33;;;;;;;5.47;4.20;;;;;;;;;;5050241;28;20036;-78
2021/07/17 02:27:59;;;;;;;6.65;4.28;;;;;;;;;;5048188;28;20037;-77
2021/07/17 02:30:25;;;;;;;5.65;3.88;;;;;;;;;;5050295;28;20549;-76
2021/07/17 02:32:51;;;;;;;6.85;4.30;;;;;;;;;;5048828;28;20021;-76
2021/07/17 02:35:17;;;;;;;6.95;4.18;;;;;;;;;;5050222;28;20051;-77
2021/07/17 02:37:43;;;;;;;8.15;4.20;;;;;;;;;;5050211;28;20029;-77
2021/07/17 02:40:09;;;;;;;7.05;4.05;;;;;;;;;;5049620;28;20487;-75
2021/07/17 02:42:35;;;;;;;6.35;3.75;;;;;;;;;;5050081;28;20017;-76
2021/07/17 02:45:01;;;;;;;6.82;3.95;;;;;;;;;;5050338;28;20036;-78
2021/07/17 02:47:28;;;;;;;6.28;4.82;;;;;;;;;;5049886;28;20029;-77
2021/07/17 02:49:54;;;;;;;7.55;4.22;;;;;;;;;;5050084;28;20098;-77
2021/07/17 02:52:20;;;;;;;7.88;4.15;;;;;;;;;;5048390;28;20190;-78
2021/07/17 02:54:46;;;;;;;8.93;5.13;;;;;;;;;;5050184;28;20531;-76
2021/07/17 02:57:12;;;;;;;9.10;3.92;;;;;;;;;;5049726;28;20108;-78
2021/07/17 02:59:37;;;;;;;7.20;3.80;;;;;;;;;;5051625;28;20040;-77
2021/07/17 03:02:03;;;;;;;7.28;3.47;;;;;;;;;;5056450;28;20032;-76
2021/07/17 03:04:29;;;;;;;5.82;3.55;;;;;;;;;;5054634;28;20488;-77
2021/07/17 03:06:55;;;;;;;7.50;3.72;;;;;;;;;;5056405;28;20031;-78
2021/07/17 03:09:21;;;;;;;4.88;3.88;;;;;;;;;;5056229;28;20429;-77
2021/07/17 03:11:48;;;;;;;6.15;3.85;;;;;;;;;;5056142;28;20021;-77
2021/07/17 03:14:14;;;;;;;6.80;4.22;;;;;;;;;;5056448;28;20415;-77
2021/07/17 03:16:40;;;;;;;6.82;3.85;;;;;;;;;;5055112;28;20116;-77
2021/07/17 03:19:07;;;;;;;7.80;4.20;;;;;;;;;;5054804;28;20541;-77
2021/07/17 03:21:33;;;;;;;4.88;3.28;;;;;;;;;;5054851;28;20032;-77
2021/07/17 03:23:59;;;;;;;4.28;3.40;;;;;;;;;;5056278;28;20375;-77
2021/07/17 03:26:25;;;;;;;4.72;2.75;;;;;;;;;;5056489;28;20027;-76
2021/07/17 03:28:51;;;;;;;3.80;2.83;;;;;;;;;;5055875;28;20411;-77
2021/07/17 03:31:24;;;;;;;4.25;2.60;;;;;;;;;;5054699;28;20032;-76
2021/07/17 03:33:50;;;;;;;5.05;3.00;;;;;;;;;;5056549;28;20602;-77
2021/07/17 03:36:16;;;;;;;7.65;2.80;;;;;;;;;;5055025;28;20291;-77
2021/07/17 03:38:42;;;;;;;4.25;2.90;;;;;;;;;;5055576;28;20037;-77
2021/07/17 03:41:08;;;;;;;3.88;2.83;;;;;;;;;;5056357;28;20773;-76
2021/07/17 03:43:34;;;;;;;4.75;2.92;;;;;;;;;;5056748;28;20097;-77
2021/07/17 03:46:00;;;;;;;6.32;2.83;;;;;;;;;;5055065;28;20086;-77
2021/07/17 03:48:26;;;;;;;4.38;3.03;;;;;;;;;;5056054;28;20103;-77
2021/07/17 03:50:52;;;;;;;4.90;3.20;;;;;;;;;;5055759;28;20430;-76
2021/07/17 03:53:18;;;;;;;4.68;2.92;;;;;;;;;;5054766;28;20033;-77
2021/07/17 03:55:44;;;;;;;5.43;3.20;;;;;;;;;;5056323;28;20432;-77
2021/07/17 03:58:10;;;;;;;7.25;2.90;;;;;;;;;;5055952;28;20112;-77
2021/07/17 04:00:36;;;;;;;3.38;2.60;;;;;;;;;;5054182;28;20483;-77
2021/07/17 04:03:04;;;;;;;6.68;2.88;;;;;;;;;;5055903;28;20045;-77
2021/07/17 04:05:29;;;;;;;;;;;;;;;;;;5056306;28;20116;-76
2021/07/17 04:07:56;;;;;;;4.05;3.25;;;;;;;;;;5055987;28;20007;-77
2021/07/17 04:10:22;;;;;;;7.18;3.00;;;;;;;;;;5055301;28;20033;-77
2021/07/17 04:12:48;;;;;;;5.53;2.70;;;;;;;;;;5052168;28;20094;-77
2021/07/17 04:15:14;;;;;;;3.13;2.70;;;;;;;;;;5052853;28;20029;-77
2021/07/17 04:17:40;;;;;;;7.75;2.92;;;;;;;;;;5051061;28;20095;-76
2021/07/17 04:20:06;;;;;;;3.42;2.50;;;;;;;;;;5052474;28;20037;-77
2021/07/17 04:22:32;;;;;;;4.93;2.80;;;;;;;;;;5052435;28;20514;-77
2021/07/17 04:24:58;;;;;;;14.43;2.67;;;;;;;;;;5052643;28;20032;-77
2021/07/17 04:27:24;;;;;;;4.38;2.83;;;;;;;;;;5052519;28;20029;-77
2021/07/17 04:29:50;;;;;;;4.93;2.60;;;;;;;;;;5052237;28;20037;-77
2021/07/17 04:32:16;;;;;;;4.25;2.83;;;;;;;;;;5052563;28;20428;-78
2021/07/17 04:34:42;;;;;;;2.97;2.35;;;;;;;;;;5050923;28;20392;-77
2021/07/17 04:37:08;;;;;;;8.45;3.08;;;;;;;;;;5052173;28;20458;-77
2021/07/17 04:39:34;;;;;;;5.00;2.42;;;;;;;;;;5050925;28;20036;-78
2021/07/17 04:42:00;;;;;;;4.72;2.42;;;;;;;;;;5052202;28;20025;-78
2021/07/17 04:44:26;;;;;;;3.70;2.42;;;;;;;;;;5052350;28;20478;-78
2021/07/17 04:46:52;;;;;;;4.15;2.55;;;;;;;;;;5050310;28;20025;-78
2021/07/17 04:49:18;;;;;;;2.65;2.30;;;;;;;;;;5051775;28;20037;-78
2021/07/17 04:51:44;;;;;;;3.45;2.20;;;;;;;;;;5052088;28;20025;-78
2021/07/17 04:54:10;;;;;;;4.30;2.53;;;;;;;;;;5051617;28;20032;-77
2021/07/17 04:56:36;;;;;;;6.07;2.50;;;;;;;;;;5050906;28;20166;-78
2021/07/17 04:59:02;;;;;;;3.97;2.50;;;;;;;;;;5050617;28;20029;-77
2021/07/17 05:01:28;;;;;;;3.58;2.60;;;;;;;;;;5050361;28;20041;-76
2021/07/17 05:03:54;;;;;;;2.67;2.47;;;;;;;;;;5051669;28;20125;-78
2021/07/17 05:06:20;;;;;;;4.28;2.60;;;;;;;;;;5051543;28;20352;-78
2021/07/17 05:08:46;;;;;;;5.68;2.83;;;;;;;;;;5051614;28;20036;-78
2021/07/17 05:11:12;;;;;;;3.28;2.33;;;;;;;;;;5051430;28;20033;-78
2021/07/17 05:13:38;;;;;;;3.65;2.40;;;;;;;;;;5051593;28;20037;-77
2021/07/17 05:16:04;;;;;;;5.05;2.60;;;;;;;;;;5049876;28;20593;-77
2021/07/17 05:18:30;;;;;;;5.70;2.80;;;;;;;;;;5051566;28;20031;-77
2021/07/17 05:20:56;;;;;;;3.40;2.42;;;;;;;;;;5051092;28;20061;-77
2021/07/17 05:23:22;;;;;;;3.83;2.30;;;;;;;;;;5050354;28;20423;-77
2021/07/17 05:25:50;;;;;;;3.80;2.30;;;;;;;;;;5051405;28;20083;-77
2021/07/17 05:28:16;;;;;;;5.68;2.70;;;;;;;;;;5051217;28;20106;-78
2021/07/17 05:30:42;;;;;;;4.50;2.28;;;;;;;;;;5051055;28;20124;-77
2021/07/17 05:33:10;;;;;;;3.65;2.38;;;;;;;;;;5051206;28;20447;-77
2021/07/17 05:35:36;;;;;;;5.35;2.60;;;;;;;;;;5051296;28;20047;-78
2021/07/17 05:38:02;;;;;;;4.85;2.50;;;;;;;;;;5051462;28;20376;-76
2021/07/17 05:40:28;;;;;;;5.07;2.35;;;;;;;;;;5050398;28;20041;-77
2021/07/17 05:42:54;;;;;;;2.50;2.30;;;;;;;;;;5050053;28;20029;-77
2021/07/17 05:45:20;;;;;;;3.88;2.17;;;;;;;;;;5051072;28;20118;-77
2021/07/17 05:47:46;;;;;;;3.28;2.33;;;;;;;;;;5049604;28;20070;-77
2021/07/17 05:50:12;;;;;;;2.78;2.08;;;;;;;;;;5049183;28;20031;-77
2021/07/17 05:52:38;;;;;;;2.15;1.80;;;;;;;;;;5050981;28;20032;-77
2021/07/17 05:55:05;;;;;;;4.20;2.00;;;;;;;;;;5050671;28;20025;-77
2021/07/17 05:57:34;;;;;;;3.17;2.00;;;;;;;;;;5049439;28;20086;-77
2021/07/17 06:00:00;;;;;;;2.38;2.17;;;;;;;;;;5049568;28;20108;-77
2021/07/17 06:02:26;;;;;;;4.07;2.40;;;;;;;;;;5050532;28;20060;-77
2021/07/17 06:04:53;;;;;;;8.93;2.20;;;;;;;;;;5050187;28;20027;-78
2021/07/17 06:07:19;;;;;;;3.93;2.00;;;;;;;;;;5050694;28;20021;-78
2021/07/17 06:09:45;;;;;;;2.00;1.80;;;;;;;;;;5050672;28;20659;-78
2021/07/17 06:12:11;;;;;;;4.75;2.00;;;;;;;;;;5048743;28;20052;-77
2021/07/17 06:14:38;;;;;;;3.42;2.25;;;;;;;;;;5050728;28;20025;-78
2021/07/17 06:17:04;;;;;;;3.83;2.13;;;;;;;;;;5050313;28;20021;-78
2021/07/17 06:19:31;;;;;;;10.52;6.03;;;;;;;;;;5050071;28;20256;-78
2021/07/17 06:21:57;;;;;;;4.50;2.50;;;;;;;;;;5050209;28;20041;-78
2021/07/17 06:24:23;;;;;;;2.88;1.83;;;;;;;;;;5049393;28;20531;-76
2021/07/17 06:26:49;;;;;;;5.72;2.30;;;;;;;;;;5048918;28;20116;-77
2021/07/17 06:29:15;;;;;;;2.47;2.08;;;;;;;;;;5049994;28;20061;-78
2021/07/17 06:31:41;;;;;;;6.25;2.15;;;;;;;;;;5049986;28;20072;-78
2021/07/17 06:34:07;;;;;;;6.00;2.17;;;;;;;;;;5048648;28;20032;-79
2021/07/17 06:36:33;;;;;;;2.25;1.70;;;;;;;;;;5050647;28;20025;-79
2021/07/17 06:38:59;;;;;;;5.78;1.80;;;;;;;;;;5048820;28;20357;-78
2021/07/17 06:41:25;;;;;;;2.35;1.80;;;;;;;;;;5049990;28;20044;-77
2021/07/17 06:43:51;;;;;;;2.38;1.90;;;;;;;;;;5049654;28;20024;-77
2021/07/17 06:46:17;;;;;;;2.50;1.80;;;;;;;;;;5048894;28;20124;-77
2021/07/17 06:48:43;;;;;;;5.75;1.95;;;;;;;;;;5050018;28;20134;-77
2021/07/17 06:51:09;;;;;;;2.70;1.80;;;;;;;;;;5048380;28;20028;-78
2021/07/17 06:53:36;;;;;;;1.90;1.50;;;;;;;;;;5050001;28;20025;-79
2021/07/17 06:56:02;;;;;;;4.20;1.77;;;;;;;;;;5048387;28;20025;-79
2021/07/17 06:58:28;;;;;;;1.90;1.70;;;;;;;;;;5050013;28;20033;-78
2021/07/17 07:00:54;;;;;;;1.85;1.55;;;;;;;;;;5048637;28;20124;-78
2021/07/17 07:03:21;;;;;;;3.50;2.85;;;;;;;;;;5048384;28;20531;-79
2021/07/17 07:05:47;;;;;;;6.30;3.00;;;;;;;;;;5050165;28;20025;-77
2021/07/17 07:08:13;;;;;;;4.60;1.88;;;;;;;;;;5049473;28;20017;-77
2021/07/17 07:10:39;;;;;;;1.70;1.60;;;;;;;;;;5050274;28;20079;-77
2021/07/17 07:13:11;;;;;;;2.15;1.60;;;;;;;;;;5049544;28;20065;-78
2021/07/17 07:15:37;;;;;;;3.33;1.90;;;;;;;;;;5049378;28;20029;-77
2021/07/17 07:18:04;;;;;;;2.25;1.70;;;;;;;;;;5049859;28;20056;-79
2021/07/17 07:20:30;;;;;;;2.37;1.70;;;;;;;;;;5048346;28;20337;-78
2021/07/17 07:22:56;;;;;;;1.70;1.60;;;;;;;;;;5049487;28;20037;-78
2021/07/17 07:25:22;;;;;;;5.00;2.05;;;;;;;;;;5049655;28;20025;-78
2021/07/17 07:27:48;;;;;;;5.93;1.80;;;;;;;;;;5049524;28;20156;-78
2021/07/17 07:30:15;;;;;;;3.63;1.83;;;;;;;;;;5048432;28;20475;-78
2021/07/17 07:32:41;;;;;;;4.90;2.72;;;;;;;;;;5049460;28;20037;-79
2021/07/17 07:35:07;;;;;;;2.08;1.88;;;;;;;;;;5049720;28;20025;-78
2021/07/17 07:37:33;;;;;;;5.40;1.80;;;;;;;;;;5049798;28;20487;-78
2021/07/17 07:39:59;;;;;;;2.13;1.63;;;;;;;;;;5047869;28;20033;-79
2021/07/17 07:42:25;;;;;;;5.70;1.93;;;;;;;;;;5048132;28;20037;-78
2021/07/17 07:44:52;;;;;;;5.47;2.22;;;;;;;;;;5049396;28;20295;-79
2021/07/17 07:47:19;;;;;;;2.70;1.80;;;;;;;;;;5051514;28;20025;-79
2021/07/17 07:49:45;;;;;;;3.42;1.98;;;;;;;;;;5051673;28;20301;-79
2021/07/17 07:52:11;;;;;;;2.17;1.98;;;;;;;;;;5053332;28;20471;-79
2021/07/17 07:54:37;;;;;;;3.15;1.98;;;;;;;;;;5053410;28;20024;-79
2021/07/17 07:57:04;;;;;;;3.63;1.85;;;;;;;;;;5051879;28;20032;-79
2021/07/17 07:59:30;;;;;;;6.85;1.90;;;;;;;;;;5051585;28;20452;-79
2021/07/17 08:01:56;;;;;;;2.58;1.70;;;;;;;;;;5051473;28;20043;-78
2021/07/17 08:04:22;;;;;;;2.15;1.55;;;;;;;;;;5053128;28;20376;-79
2021/07/17 08:06:48;;;;;;;3.35;1.67;;;;;;;;;;5052979;28;20110;-80
2021/07/17 08:09:14;;;;;;;1.88;1.60;;;;;;;;;;5052521;28;20533;-79
2021/07/17 08:11:40;;;;;;;2.60;1.92;;;;;;;;;;5051400;28;20025;-79
2021/07/17 08:14:06;;;;;;;8.07;2.08;;;;;;;;;;5052546;28;20120;-79
2021/07/17 08:16:32;;;;;;;5.10;2.95;;;;;;;;;;5051137;28;20428;-79
2021/07/17 08:18:58;;;;;;;7.38;2.88;;;;;;;;;;5051162;28;20440;-79
2021/07/17 08:21:24;;;;;;;1.83;1.63;;;;;;;;;;5052811;28;20531;-79
2021/07/17 08:23:50;;;;;;;2.90;1.40;;;;;;;;;;5052168;28;20060;-78
2021/07/17 08:26:18;;;;;;;3.15;1.92;;;;;;;;;;5051336;28;20159;-79
2021/07/17 08:28:44;;;;;;;2.47;1.75;;;;;;;;;;5051108;28;20053;-79
2021/07/17 08:31:10;;;;;;;10.70;1.90;;;;;;;;;;5050636;28;20025;-78
2021/07/17 08:33:36;;;;;;;2.67;1.85;;;;;;;;;;5050945;28;20076;-79
2021/07/17 08:36:03;;;;;;;2.97;1.88;;;;;;;;;;5052569;28;20017;-79
2021/07/17 08:38:29;;;;;;;2.60;1.77;;;;;;;;;;5052242;28;20068;-78
2021/07/17 08:40:56;;;;;;;3.17;1.60;;;;;;;;;;5051978;28;20451;-79
2021/07/17 08:43:23;;;;;;;1.70;1.60;;;;;;;;;;5052139;28;20029;-79
2021/07/17 08:45:49;;;;;;;2.28;1.70;;;;;;;;;;5051003;28;20055;-78
2021/07/17 08:48:15;;;;;;;1.83;1.73;;;;;;;;;;5052167;28;20094;-79
2021/07/17 08:50:41;;;;;;;1.70;1.60;;;;;;;;;;5051892;28;20489;-80
2021/07/17 08:53:08;;;;;;;3.70;1.60;;;;;;;;;;5051733;28;20291;-79
2021/07/17 08:55:34;;;;;;;1.83;1.50;;;;;;;;;;5050722;28;20043;-80
2021/07/17 08:58:00;;;;;;;1.63;1.53;;;;;;;;;;5051968;28;20025;-80
2021/07/17 09:00:34;;;;;;;3.47;1.60;;;;;;;;;;5051472;28;20102;-80
2021/07/17 09:03:01;;;;;;;3.35;1.77;;;;;;;;;;5051661;28;20076;-79
2021/07/17 09:05:27;;;;;;;;;;;;;;;;;;5052658;28;20113;-79
2021/07/17 09:07:53;;;;;;;1.50;1.40;;;;;;;;;;5051819;28;20354;-80
2021/07/17 09:10:38;;;;;;;2.00;1.85;;;;;;;;;;5051307;28;20075;-80
2021/07/17 09:13:06;;;;;;;4.38;2.95;;;;;;;;;;5051570;28;20021;-80
2021/07/17 09:15:33;;;;;;;3.38;2.58;;;;;;;;;;5051531;28;20029;-79
2021/07/17 09:17:59;;;;;;;2.45;1.50;;;;;;;;;;5050411;28;20532;-80
2021/07/17 09:20:25;;;;;;;2.70;1.67;;;;;;;;;;5051512;28;20071;-79
2021/07/17 09:23:09;;;;;;;4.72;1.73;;;;;;;;;;5049690;28;20421;-79
2021/07/17 09:25:39;;;;;;;2.58;1.50;;;;;;;;;;5051638;28;20029;-79
2021/07/17 09:28:17;;;;;;;3.28;1.67;;;;;;;;;;5051368;28;20040;-79
2021/07/17 09:30:43;;;;;;;3.92;1.60;;;;;;;;;;5050033;28;20021;-79
2021/07/17 09:33:10;;;;;;;3.37;2.00;;;;;;;;;;5049753;28;20063;-79
2021/07/17 09:35:38;;;;;;;3.20;1.60;;;;;;;;;;5049706;28;20086;-78
2021/07/17 09:38:06;;;;;;;1.77;1.60;;;;;;;;;;5051215;28;20032;-80
2021/07/17 09:41:04;;;;;;;2.03;1.90;;;;;;;;;;5050990;28;20487;-80
2021/07/17 09:43:32;;;;;;;1.90;1.80;;;;;;;;;;5016607;28;20533;-80
2021/07/17 09:45:59;;;;;;;3.63;2.00;;;;;;;;;;5050912;28;20021;-80
2021/07/17 09:48:26;;;;;;;2.25;1.70;;;;;;;;;;5049802;28;20029;-81
2021/07/17 09:50:53;;;;;;;3.30;1.80;;;;;;;;;;5050986;28;20021;-81
2021/07/17 09:53:37;;;;;;;2.10;1.60;;;;;;;;;;5050967;28;20033;-81
2021/07/17 09:56:11;;;;;;;2.20;2.00;;;;;;;;;;5049697;28;20025;-82
2021/07/17 09:58:38;;;;;;;2.05;1.90;;;;;;;;;;5049208;28;20092;-82
2021/07/17 10:01:19;;;;;;;2.08;1.98;;;;;;;;;;5050906;28;20063;-82
2021/07/17 10:03:46;;;;;;;1.80;1.70;;;;;;;;;;5049098;28;20052;-81
2021/07/17 10:06:12;;;;;;;;;;;;;;;;;;5051167;28;20032;-82
2021/07/17 10:08:38;;;;;;;2.10;1.90;;;;;;;;;;5050392;28;19913;-81
2021/07/17 10:11:11;;;;;;;2.10;1.90;;;;;;;;;;5050688;28;20052;-82
2021/07/17 10:13:40;;;;;;;3.78;1.80;;;;;;;;;;5050901;28;20037;-82
2021/07/17 10:16:19;;;;;;;2.70;1.80;;;;;;;;;;5049139;28;20029;-81
2021/07/17 10:18:46;;;;;;;2.45;1.90;;;;;;;;;;5050543;28;20033;-81
2021/07/17 10:21:12;;;;;;;5.55;1.90;;;;;;;;;;5049939;28;20032;-82
2021/07/17 10:23:39;;;;;;;2.00;1.80;;;;;;;;;;5049105;28;20037;-83
2021/07/17 10:26:06;;;;;;;2.28;2.08;;;;;;;;;;5048989;28;20044;-81
2021/07/17 10:28:32;;;;;;;2.00;1.90;;;;;;;;;;5050202;28;20467;-82
2021/07/17 10:30:59;;;;;;;2.05;1.90;;;;;;;;;;5050455;28;20036;-82
2021/07/17 10:33:25;;;;;;;2.45;1.88;;;;;;;;;;5048937;28;20079;-82
2021/07/17 10:35:52;;;;;;;2.20;2.00;;;;;;;;;;5049798;28;20560;-81
2021/07/17 10:38:21;;;;;;;3.10;1.90;;;;;;;;;;5050577;28;20063;-82
2021/07/17 10:40:48;;;;;;;2.00;1.80;;;;;;;;;;5050237;28;20045;-84
2021/07/17 10:43:15;;;;;;;2.03;1.83;;;;;;;;;;5048488;28;20486;-82
2021/07/17 10:45:43;;;;;;;2.13;1.92;;;;;;;;;;5049812;28;20055;-83
2021/07/17 10:48:24;;;;;;;3.17;2.00;;;;;;;;;;5050138;28;20808;-83
2021/07/17 10:50:50;;;;;;;3.33;2.00;;;;;;;;;;5048565;28;20033;-81
2021/07/17 10:53:35;;;;;;;2.63;2.00;;;;;;;;;;5048377;28;20021;-83
2021/07/17 10:56:21;;;;;;;2.22;2.03;;;;;;;;;;5049826;28;20029;-83
2021/07/17 10:58:47;;;;;;;2.22;2.03;;;;;;;;;;5048787;28;20028;-83
2021/07/17 11:01:14;;;;;;;1.88;1.77;;;;;;;;;;5048680;28;20029;-83
2021/07/17 11:03:40;;;;;;;2.50;1.90;;;;;;;;;;5048580;28;20169;-81
2021/07/17 11:06:24;;;;;;;3.00;2.37;;;;;;;;;;5048249;28;20553;-82
2021/07/17 11:08:50;;;;;;;2.35;2.15;;;;;;;;;;5048210;28;20307;-83
2021/07/17 11:11:34;;;;;;;3.03;2.00;;;;;;;;;;5048575;28;20032;-83
2021/07/17 11:14:06;;;;;;;2.47;2.22;;;;;;;;;;5048663;28;20061;-80
2021/07/17 11:16:41;;;;;;;2.05;1.80;;;;;;;;;;5049540;28;20037;-82
2021/07/17 11:19:19;;;;;;;2.97;1.80;;;;;;;;;;5049451;28;20170;-83
2021/07/17 11:21:46;;;;;;;2.05;1.95;;;;;;;;;;5052511;28;20033;-84
2021/07/17 11:24:13;;;;;;;3.05;1.70;;;;;;;;;;5053615;28;20021;-83
2021/07/17 11:26:39;;;;;;;2.58;1.88;;;;;;;;;;5053627;28;20055;-84
2021/07/17 11:29:09;;;;;;;1.85;1.75;;;;;;;;;;5053907;28;20104;-83
2021/07/17 11:31:37;;;;;;;2.00;1.80;;;;;;;;;;5054035;28;20079;-84
2021/07/17 11:34:14;;;;;;;2.08;1.90;;;;;;;;;;5053761;28;20040;-84
2021/07/17 11:36:40;;;;;;;2.17;1.98;;;;;;;;;;5053076;28;20124;-82
2021/07/17 11:39:06;;;;;;;;;;;;;;;;;;5054020;28;20036;-83
2021/07/17 11:41:32;;;;;;;2.15;1.80;;;;;;;;;;5053136;28;19904;-85
2021/07/17 11:43:58;;;;;;;3.65;2.00;;;;;;;;;;5053622;28;20071;-84
2021/07/17 11:46:24;;;;;;;2.35;2.15;;;;;;;;;;5051775;28;20033;-84
2021/07/17 11:49:03;;;;;;;2.05;1.90;;;;;;;;;;5053243;28;20041;-84
2021/07/17 11:51:29;;;;;;;2.10;1.90;;;;;;;;;;5052954;28;20035;-84
2021/07/17 11:53:59;;;;;;;2.55;2.00;;;;;;;;;;5053351;28;20024;-84
2021/07/17 11:56:25;;;;;;;8.30;2.25;;;;;;;;;;5051731;28;20037;-84
2021/07/17 11:58:51;;;;;;;8.80;1.80;;;;;;;;;;5051776;28;20028;-85
2021/07/17 12:01:18;;;;;;;2.20;1.88;;;;;;;;;;5052915;28;20033;-83
2021/07/17 12:03:44;;;;;;;;;;;;;;;;;;5053407;28;20431;-84
2021/07/17 12:06:10;;;;;;;2.95;2.17;;;;;;;;;;5051390;28;19913;-83
2021/07/17 12:08:36;;;;;;;1.80;1.70;;;;;;;;;;5051592;28;20067;-83
2021/07/17 12:11:02;;;;;;;2.25;2.05;;;;;;;;;;5053184;28;20032;-83
2021/07/17 12:13:27;;;;;;;2.05;1.88;;;;;;;;;;5052542;28;20368;-82
2021/07/17 12:15:54;;;;;;;2.30;2.10;;;;;;;;;;5052517;28;20033;-82
2021/07/17 12:18:21;;;;;;;2.88;2.00;;;;;;;;;;5053209;28;20107;-83
2021/07/17 12:20:52;;;;;;;3.13;2.10;;;;;;;;;;5052886;28;20024;-83
2021/07/17 12:23:19;;;;;;;2.28;2.08;;;;;;;;;;5051738;28;20037;-84
2021/07/17 12:25:57;;;;;;;2.40;2.10;;;;;;;;;;5052698;28;20021;-83
2021/07/17 12:28:29;;;;;;;1.90;1.80;;;;;;;;;;5051684;28;20037;-83
2021/07/17 12:31:00;;;;;;;4.90;2.20;;;;;;;;;;5052780;28;20025;-84
2021/07/17 12:33:33;;;;;;;2.13;1.98;;;;;;;;;;5050694;28;20036;-83
2021/07/17 12:36:04;;;;;;;3.28;2.00;;;;;;;;;;5051062;28;20025;-84
2021/07/17 12:38:31;;;;;;;2.20;2.00;;;;;;;;;;5052434;28;20124;-83
2021/07/17 12:40:58;;;;;;;2.75;1.92;;;;;;;;;;5052119;28;20025;-84
2021/07/17 12:43:29;;;;;;;2.75;2.30;;;;;;;;;;5052421;28;20035;-85
2021/07/17 12:45:58;;;;;;;2.30;2.10;;;;;;;;;;5052277;28;20021;-84
2021/07/17 12:48:25;;;;;;;2.20;2.00;;;;;;;;;;5052850;28;20033;-85
2021/07/17 12:51:02;;;;;;;2.47;2.28;;;;;;;;;;5051613;28;20021;-83
2021/07/17 12:53:28;;;;;;;2.50;2.30;;;;;;;;;;5051154;28;20375;-85
2021/07/17 12:55:54;;;;;;;3.80;2.30;;;;;;;;;;5052476;28;20021;-85
2021/07/17 12:58:20;;;;;;;3.97;2.53;;;;;;;;;;5052044;28;20068;-83
2021/07/17 13:00:46;;;;;;;2.47;1.98;;;;;;;;;;5050842;28;20418;-84
2021/07/17 13:03:13;;;;;;;3.05;2.30;;;;;;;;;;5050193;28;20477;-84
2021/07/17 13:05:42;;;;;;;3.47;2.22;;;;;;;;;;5050848;28;20475;-84
2021/07/17 13:08:08;;;;;;;2.60;2.40;;;;;;;;;;5051701;28;20086;-84
2021/07/17 13:10:35;;;;;;;2.95;2.40;;;;;;;;;;5050706;28;20033;-84
2021/07/17 13:13:07;;;;;;;3.13;2.40;;;;;;;;;;5050457;28;20601;-85
2021/07/17 13:15:33;;;;;;;3.35;2.53;;;;;;;;;;5051345;28;20029;-84
2021/07/17 13:17:59;;;;;;;2.47;2.28;;;;;;;;;;5051382;28;20092;-85
2021/07/17 13:20:25;;;;;;;;;;;;;;;;;;5052243;28;20499;-85
2021/07/17 13:22:52;;;;;;;3.15;2.38;;;;;;;;;;5051432;28;19905;-85
2021/07/17 13:25:19;;;;;;;4.30;2.30;;;;;;;;;;5051677;28;20098;-84
2021/07/17 13:27:45;;;;;;;4.18;2.30;;;;;;;;;;5051004;28;20037;-84
2021/07/17 13:30:12;;;;;;;7.32;2.65;;;;;;;;;;5050189;28;20052;-83
2021/07/17 13:32:43;;;;;;;2.95;2.50;;;;;;;;;;5051421;28;20044;-84
2021/07/17 13:35:19;;;;;;;2.78;2.58;;;;;;;;;;5049734;28;20032;-85
2021/07/17 13:37:46;;;;;;;3.00;2.50;;;;;;;;;;5049900;28;20087;-85
2021/07/17 13:40:12;;;;;;;4.07;2.75;;;;;;;;;;5049734;28;20021;-84
2021/07/17 13:42:39;;;;;;;4.00;2.72;;;;;;;;;;5050023;28;20107;-85
2021/07/17 13:45:09;;;;;;;3.03;2.70;;;;;;;;;;5048848;28;20029;-86
2021/07/17 13:47:39;;;;;;;2.60;2.40;;;;;;;;;;5049216;28;20033;-85
2021/07/17 13:50:23;;;;;;;3.38;2.83;;;;;;;;;;5051159;28;20032;-86
2021/07/17 13:53:00;;;;;;;2.70;2.50;;;;;;;;;;5049597;28;20025;-85
2021/07/17 13:55:26;;;;;;;3.63;2.60;;;;;;;;;;5050916;28;20080;-84
2021/07/17 13:58:02;;;;;;;4.28;2.53;;;;;;;;;;5049330;28;20479;-84
2021/07/17 14:00:38;;;;;;;3.95;2.88;;;;;;;;;;5050478;28;20414;-83
2021/07/17 14:03:04;;;;;;;3.38;2.78;;;;;;;;;;5050939;28;20076;-85
2021/07/17 14:05:30;;;;;;;5.97;2.50;;;;;;;;;;5050673;28;20064;-84
2021/07/17 14:07:56;;;;;;;3.42;2.40;;;;;;;;;;5050694;28;20207;-85
2021/07/17 14:10:22;;;;;;;2.72;2.45;;;;;;;;;;5050865;28;20024;-86
2021/07/17 14:12:48;;;;;;;3.00;2.40;;;;;;;;;;5050417;28;20671;-84
2021/07/17 14:15:14;;;;;;;2.78;2.40;;;;;;;;;;5050838;28;20215;-85
2021/07/17 14:17:40;;;;;;;3.60;2.65;;;;;;;;;;5050356;28;20143;-84
2021/07/17 14:20:06;;;;;;;2.67;2.33;;;;;;;;;;5050676;28;20047;-84
2021/07/17 14:22:32;;;;;;;4.47;2.60;;;;;;;;;;5050314;28;20032;-85
2021/07/17 14:24:58;;;;;;;3.42;2.40;;;;;;;;;;5050116;28;20478;-84
2021/07/17 14:27:24;;;;;;;4.97;2.50;;;;;;;;;;5050632;28;20060;-84
2021/07/17 14:29:50;;;;;;;2.45;2.25;;;;;;;;;;5050678;28;20454;-83
2021/07/17 14:32:16;;;;;;;2.95;2.65;;;;;;;;;;5049096;28;20025;-84
2021/07/17 14:34:42;;;;;;;3.15;2.58;;;;;;;;;;5048843;28;20032;-84
2021/07/17 14:37:08;;;;;;;2.80;2.50;;;;;;;;;;5048899;28;20096;-84
2021/07/17 14:39:34;;;;;;;4.93;2.75;;;;;;;;;;5049987;28;20603;-84
2021/07/17 14:42:00;;;;;;;3.40;2.28;;;;;;;;;;5048964;28;20033;-84
2021/07/17 14:44:27;;;;;;;3.30;2.60;;;;;;;;;;5050129;28;20032;-84
2021/07/17 14:46:53;;;;;;;;;;;;;;;;;;5050137;28;20021;-84